createdAt,value
2023-03-06T00:03:22.406Z,20.80
2023-03-06T00:07:29.943Z,15.80
2023-03-06T00:11:40.262Z,14.30
2023-03-06T00:15:49.914Z,16.10
2023-03-06T00:19:59.460Z,16.40
2023-03-06T00:24:07.520Z,17.50
2023-03-06T00:28:16.194Z,16.70
2023-03-06T00:32:27.130Z,16.20
2023-03-06T00:36:36.177Z,18.60
2023-03-06T00:40:44.207Z,23.10
2023-03-06T00:44:52.404Z,19.40
2023-03-06T00:49:00.173Z,18.00
2023-03-06T00:53:08.283Z,15.00
2023-03-06T00:57:16.486Z,15.40
2023-03-06T01:01:24.700Z,16.20
2023-03-06T01:05:33.755Z,14.30
2023-03-06T01:09:43.582Z,19.80
2023-03-06T01:13:51.901Z,23.80
2023-03-06T01:18:00.044Z,18.00
2023-03-06T01:22:08.328Z,19.60
2023-03-06T01:26:16.277Z,17.80
2023-03-06T01:30:24.720Z,18.30
2023-03-06T01:34:32.182Z,15.80
2023-03-06T01:38:40.228Z,15.40
2023-03-06T01:42:49.278Z,23.20
2023-03-06T01:46:57.041Z,26.00
2023-03-06T01:51:04.820Z,22.70
2023-03-06T01:55:14.683Z,16.80
2023-03-06T01:59:23.642Z,18.00
2023-03-06T02:03:32.281Z,19.00
2023-03-06T02:07:40.529Z,17.30
2023-03-06T02:11:48.261Z,15.80
2023-03-06T02:15:55.954Z,22.00
2023-03-06T02:20:10.423Z,22.50
2023-03-06T02:24:28.846Z,20.00
2023-03-06T02:28:36.652Z,15.50
2023-03-06T02:32:44.793Z,14.00
2023-03-06T02:36:54.191Z,18.10
2023-03-06T02:41:02.244Z,17.60
2023-03-06T02:45:14.539Z,26.10
2023-03-06T02:49:22.726Z,27.80
2023-03-06T02:53:31.938Z,25.70
2023-03-06T02:57:39.499Z,29.30
2023-03-06T03:01:48.109Z,24.40
2023-03-06T03:05:56.040Z,19.10
2023-03-06T03:10:05.106Z,18.40
2023-03-06T03:14:17.154Z,15.90
2023-03-06T03:18:25.821Z,27.80
2023-03-06T03:22:34.465Z,27.80
2023-03-06T03:26:42.374Z,21.00
2023-03-06T03:30:50.189Z,15.00
2023-03-06T03:34:59.673Z,15.90
2023-03-06T03:39:07.307Z,16.20
2023-03-06T03:43:16.433Z,15.50
2023-03-06T03:47:25.265Z,19.90
2023-03-06T03:51:33.034Z,21.20
2023-03-06T03:55:41.002Z,20.30
2023-03-06T03:59:48.520Z,17.30
2023-03-06T04:03:57.099Z,16.10
2023-03-06T04:08:05.577Z,16.50
2023-03-06T04:12:13.328Z,15.70
2023-03-06T04:16:22.708Z,22.70
2023-03-06T04:20:30.796Z,25.00
2023-03-06T04:24:38.150Z,19.50
2023-03-06T04:28:45.726Z,17.50
2023-03-06T04:32:53.853Z,15.20
2023-03-06T04:37:03.913Z,16.20
2023-03-06T04:41:12.065Z,15.80
2023-03-06T04:45:21.156Z,26.10
2023-03-06T04:49:29.159Z,24.00
2023-03-06T04:53:36.929Z,18.80
2023-03-06T04:57:46.278Z,16.80
2023-03-06T05:01:54.386Z,15.00
2023-03-06T05:06:02.557Z,16.60
2023-03-06T05:10:15.746Z,14.60
2023-03-06T05:14:23.396Z,21.60
2023-03-06T05:18:32.181Z,20.20
2023-03-06T05:22:40.234Z,19.20
2023-03-06T05:26:47.687Z,15.20
2023-03-06T05:30:57.283Z,15.70
2023-03-06T05:35:05.859Z,18.50
2023-03-06T05:39:14.842Z,14.90
2023-03-06T05:43:22.732Z,25.00
2023-03-06T05:47:30.663Z,21.90
2023-03-06T05:51:41.841Z,17.20
2023-03-06T05:55:58.717Z,17.50
2023-03-06T06:00:11.840Z,18.30
2023-03-06T06:04:19.837Z,13.70
2023-03-06T06:08:29.610Z,12.90
2023-03-06T06:12:45.467Z,13.00
2023-03-06T06:16:58.052Z,16.30
2023-03-06T06:21:10.274Z,17.60
2023-03-06T06:25:19.672Z,15.40
2023-03-06T06:29:31.646Z,17.60
2023-03-06T06:33:46.014Z,13.10
2023-03-06T06:37:57.170Z,13.40
2023-03-06T06:42:26.598Z,16.40
2023-03-06T06:47:18.199Z,19.60
2023-03-06T06:51:03.065Z,29.50
2023-03-06T06:55:12.199Z,24.70
2023-03-06T06:59:20.586Z,25.70
2023-03-06T07:03:29.519Z,25.40
2023-03-06T07:07:40.630Z,23.10
2023-03-06T07:11:54.089Z,27.50
2023-03-06T07:16:01.682Z,28.90
2023-03-06T07:20:14.198Z,26.60
2023-03-06T07:24:21.912Z,30.90
2023-03-06T07:28:33.692Z,29.80
2023-03-06T07:32:51.686Z,26.60
2023-03-06T07:37:05.343Z,30.90
2023-03-06T07:41:14.069Z,29.80
2023-03-06T07:45:21.936Z,28.40
2023-03-06T07:49:31.986Z,30.40
2023-03-06T07:53:40.274Z,27.40
2023-03-06T07:57:52.871Z,27.90
2023-03-06T08:02:04.935Z,34.90
2023-03-06T08:06:17.812Z,29.20
2023-03-06T08:10:30.121Z,25.80
2023-03-06T08:14:38.720Z,25.10
2023-03-06T08:18:58.263Z,25.00
2023-03-06T08:23:05.666Z,24.60
2023-03-06T08:27:13.461Z,24.20
2023-03-06T08:31:28.531Z,23.40
2023-03-06T08:35:37.037Z,23.40
2023-03-06T08:39:52.441Z,20.90
2023-03-06T08:44:02.269Z,25.80
2023-03-06T08:48:11.470Z,23.40
2023-03-06T08:52:20.357Z,20.60
2023-03-06T08:56:31.719Z,21.30
2023-03-06T09:00:43.866Z,21.50
2023-03-06T09:04:54.185Z,21.00
2023-03-06T09:09:02.476Z,19.50
2023-03-06T09:13:12.389Z,21.10
2023-03-06T09:17:19.980Z,20.90
2023-03-06T09:21:29.635Z,19.60
2023-03-06T09:25:37.773Z,19.30
2023-03-06T09:29:45.893Z,22.40
2023-03-06T09:33:53.338Z,22.20
2023-03-06T09:38:01.077Z,16.50
2023-03-06T09:42:15.455Z,18.00
2023-03-06T09:46:32.834Z,19.00
2023-03-06T09:50:48.008Z,19.10
2023-03-06T09:54:59.248Z,17.30
2023-03-06T09:59:13.406Z,18.10
2023-03-06T10:03:29.012Z,19.50
2023-03-06T10:07:46.069Z,18.80
2023-03-06T10:11:58.269Z,19.10
2023-03-06T10:16:13.826Z,16.00
2023-03-06T10:20:25.707Z,16.90
2023-03-06T10:24:45.255Z,17.40
2023-03-06T10:29:00.199Z,19.60
2023-03-06T10:33:16.204Z,16.90
2023-03-06T10:37:24.990Z,17.10
2023-03-06T10:41:35.946Z,15.90
2023-03-06T10:45:52.267Z,17.10
2023-03-06T10:50:07.327Z,15.20
2023-03-06T10:54:22.623Z,16.10
2023-03-06T10:58:32.566Z,16.80
2023-03-06T11:02:41.692Z,16.10
2023-03-06T11:06:52.183Z,16.70
2023-03-06T11:11:04.733Z,15.20
2023-03-06T11:15:21.073Z,18.70
2023-03-06T11:19:33.102Z,17.10
2023-03-06T11:23:45.642Z,18.40
2023-03-06T11:27:58.596Z,15.40
2023-03-06T11:32:12.748Z,16.10
2023-03-06T11:36:27.160Z,16.10
2023-03-06T11:40:37.937Z,15.80
2023-03-06T11:44:57.547Z,17.00
2023-03-06T11:49:14.621Z,14.80
2023-03-06T11:53:25.222Z,13.50
2023-03-06T11:57:41.001Z,13.70
2023-03-06T12:01:53.929Z,16.60
2023-03-06T12:06:06.062Z,20.20
2023-03-06T12:10:19.270Z,16.50
2023-03-06T12:14:36.014Z,15.60
2023-03-06T12:18:54.289Z,15.30
2023-03-06T12:23:15.099Z,17.70
2023-03-06T12:27:30.183Z,15.50
2023-03-06T12:31:54.366Z,17.60
2023-03-06T12:36:10.507Z,16.20
2023-03-06T12:40:43.875Z,17.00
2023-03-06T12:45:08.590Z,15.70
2023-03-06T12:49:32.033Z,13.40
2023-03-06T12:53:43.480Z,15.00
2023-03-06T12:57:52.802Z,16.10
2023-03-06T13:02:18.231Z,13.50
2023-03-06T13:06:50.751Z,15.40
2023-03-06T13:11:30.496Z,15.60
2023-03-06T13:15:49.515Z,11.30
2023-03-06T13:20:34.942Z,12.70
2023-03-06T13:24:45.241Z,12.10
2023-03-06T13:28:54.266Z,14.20
2023-03-06T13:33:01.930Z,17.50
2023-03-06T13:37:43.475Z,16.20
2023-03-06T13:41:59.980Z,12.10
2023-03-06T13:46:26.299Z,14.90
2023-03-06T13:50:45.004Z,13.40
2023-03-06T13:55:00.345Z,16.60
2023-03-06T13:59:29.412Z,16.20
2023-03-06T14:04:10.153Z,14.30
2023-03-06T14:08:19.988Z,13.30
2023-03-06T14:12:30.564Z,14.80
2023-03-06T14:16:49.714Z,13.30
2023-03-06T14:21:02.037Z,15.40
2023-03-06T14:25:18.984Z,16.80
2023-03-06T14:29:28.940Z,16.50
2023-03-06T14:33:44.797Z,15.60
2023-03-06T14:37:53.906Z,13.20
2023-03-06T14:42:10.667Z,17.90
2023-03-06T14:46:22.823Z,20.10
2023-03-06T14:50:31.982Z,15.50
2023-03-06T14:54:39.652Z,17.40
2023-03-06T14:58:56.313Z,19.20
2023-03-06T15:03:04.664Z,19.30
2023-03-06T15:07:15.523Z,18.10
2023-03-06T15:11:23.562Z,18.20
2023-03-06T15:15:34.211Z,20.60
2023-03-06T15:19:42.986Z,16.50
2023-03-06T15:23:51.844Z,17.80
2023-03-06T15:28:01.309Z,17.10
2023-03-06T15:32:33.179Z,18.90
2023-03-06T15:36:42.495Z,16.60
2023-03-06T15:40:59.651Z,17.80
2023-03-06T15:45:17.073Z,19.90
2023-03-06T15:49:25.157Z,19.70
2023-03-06T15:53:32.592Z,21.40
2023-03-06T15:57:41.344Z,18.90
2023-03-06T16:01:49.081Z,17.70
2023-03-06T16:05:56.852Z,19.30
2023-03-06T16:10:05.269Z,19.50
2023-03-06T16:14:26.103Z,20.80
2023-03-06T16:18:34.305Z,20.50
2023-03-06T16:22:42.278Z,20.50
2023-03-06T16:26:52.746Z,28.80
2023-03-06T16:31:00.796Z,29.00
2023-03-06T16:35:09.673Z,29.10
2023-03-06T16:39:18.800Z,29.90
2023-03-06T16:43:26.509Z,32.70
2023-03-06T16:47:33.917Z,30.40
2023-03-06T16:51:41.814Z,44.90
2023-03-06T16:55:52.448Z,33.30
2023-03-06T17:00:11.492Z,34.10
2023-03-06T17:04:19.569Z,37.10
2023-03-06T17:08:27.389Z,35.50
2023-03-06T17:12:36.163Z,46.30
2023-03-06T17:16:46.723Z,37.60
2023-03-06T17:20:55.517Z,30.90
2023-03-06T17:25:04.972Z,35.70
2023-03-06T17:29:13.010Z,33.90
2023-03-06T17:33:20.700Z,40.30
2023-03-06T17:37:29.320Z,49.60
2023-03-06T17:41:37.406Z,53.70
2023-03-06T17:45:45.701Z,61.00
2023-03-06T17:49:53.615Z,61.70
2023-03-06T17:54:02.014Z,57.30
2023-03-06T17:58:12.317Z,81.80
2023-03-06T18:02:20.689Z,76.30
2023-03-06T18:06:30.542Z,66.10
2023-03-06T18:10:42.529Z,65.50
2023-03-06T18:14:50.930Z,60.00
2023-03-06T18:18:59.762Z,60.40
2023-03-06T18:23:07.889Z,78.80
2023-03-06T18:27:15.908Z,41.50
2023-03-06T18:31:25.153Z,32.10
2023-03-06T18:35:34.091Z,35.10
2023-03-06T18:39:41.627Z,31.00
2023-03-06T18:43:54.494Z,26.80
2023-03-06T18:48:05.332Z,26.50
2023-03-06T18:52:14.120Z,31.10
2023-03-06T18:56:24.122Z,26.80
2023-03-06T19:00:32.155Z,27.10
2023-03-06T19:04:40.749Z,28.00
2023-03-06T19:08:48.661Z,44.60
2023-03-06T19:12:56.926Z,44.90
2023-03-06T19:17:04.818Z,47.40
2023-03-06T19:21:14.758Z,67.20
2023-03-06T19:25:23.084Z,85.60
2023-03-06T19:29:32.718Z,67.00
2023-03-06T19:33:40.590Z,58.40
2023-03-06T19:37:48.522Z,59.30
2023-03-06T19:41:57.027Z,36.20
2023-03-06T19:46:05.154Z,28.10
2023-03-06T19:50:14.554Z,31.20
2023-03-06T19:54:25.162Z,29.10
2023-03-06T19:58:33.494Z,35.60
2023-03-06T20:02:41.704Z,38.40
2023-03-06T20:06:53.604Z,39.70
2023-03-06T20:11:01.231Z,40.60
2023-03-06T20:15:13.257Z,34.90
2023-03-06T20:19:22.826Z,30.80
2023-03-06T20:23:32.735Z,29.10
2023-03-06T20:27:41.086Z,30.90
2023-03-06T20:31:50.726Z,35.30
2023-03-06T20:35:59.088Z,34.80
2023-03-06T20:40:08.747Z,28.10
2023-03-06T20:44:18.348Z,26.70
2023-03-06T20:48:26.790Z,27.70
2023-03-06T20:52:35.198Z,23.80
2023-03-06T20:56:46.237Z,29.80
2023-03-06T21:00:53.705Z,30.90
2023-03-06T21:05:01.829Z,31.50
2023-03-06T21:09:10.177Z,30.80
2023-03-06T21:13:17.559Z,26.10
2023-03-06T21:17:26.036Z,24.50
2023-03-06T21:21:34.976Z,24.30
2023-03-06T21:25:50.569Z,27.10
2023-03-06T21:29:58.809Z,30.10
2023-03-06T21:34:06.905Z,33.40
2023-03-06T21:38:15.724Z,31.90
2023-03-06T21:42:23.577Z,26.70
2023-03-06T21:46:31.205Z,28.00
2023-03-06T21:50:39.409Z,30.20
2023-03-06T21:54:47.463Z,41.80
2023-03-06T21:58:55.871Z,39.50
2023-03-06T22:03:04.813Z,44.10
2023-03-06T22:07:12.364Z,41.30
2023-03-06T22:11:21.659Z,33.10
2023-03-06T22:15:29.661Z,29.60
2023-03-06T22:19:37.628Z,30.20
2023-03-06T22:23:45.685Z,24.20
2023-03-06T22:27:52.931Z,24.80
2023-03-06T22:32:00.636Z,33.30
2023-03-06T22:36:10.910Z,39.60
2023-03-06T22:40:19.545Z,35.80
2023-03-06T22:44:27.168Z,29.40
2023-03-06T22:48:36.290Z,27.90
2023-03-06T22:52:44.394Z,29.50
2023-03-06T22:56:53.201Z,34.20
2023-03-06T23:01:01.857Z,37.40
2023-03-06T23:05:11.363Z,36.30
2023-03-06T23:09:21.478Z,31.40
2023-03-06T23:13:29.160Z,35.00
2023-03-06T23:17:37.013Z,37.40
2023-03-06T23:21:45.763Z,46.80
2023-03-06T23:25:53.873Z,56.90
2023-03-06T23:30:01.997Z,59.80
2023-03-06T23:34:11.737Z,54.60
2023-03-06T23:38:19.758Z,50.50
2023-03-06T23:42:27.541Z,47.40
2023-03-06T23:46:34.917Z,49.40
2023-03-06T23:50:44.053Z,50.60
2023-03-06T23:54:53.060Z,53.60
2023-03-06T23:59:01.896Z,50.00
